createdAt,value
2022-12-04T00:01:45.884Z,13.52
2022-12-04T00:06:47.605Z,12.73
2022-12-04T00:11:49.435Z,11.90
2022-12-04T00:16:51.231Z,12.57
2022-12-04T00:21:53.046Z,12.57
2022-12-04T00:26:54.826Z,12.07
2022-12-04T00:31:56.676Z,11.68
2022-12-04T00:36:58.421Z,11.82
2022-12-04T00:42:00.207Z,11.90
2022-12-04T00:47:01.863Z,11.30
2022-12-04T00:52:03.659Z,11.15
2022-12-04T00:57:05.330Z,11.38
2022-12-04T01:02:07.054Z,11.70
2022-12-04T01:07:08.814Z,11.75
2022-12-04T01:12:10.486Z,10.48
2022-12-04T01:17:12.104Z,10.77
2022-12-04T01:22:13.818Z,11.05
2022-12-04T01:27:15.482Z,11.65
2022-12-04T01:32:17.355Z,11.65
2022-12-04T01:37:19.248Z,12.00
2022-12-04T01:42:21.081Z,11.25
2022-12-04T01:47:22.747Z,10.73
2022-12-04T01:52:26.224Z,10.98
2022-12-04T01:57:32.103Z,9.73
2022-12-04T02:02:37.809Z,9.82
2022-12-04T02:07:40.875Z,8.95
2022-12-04T02:12:51.103Z,8.87
2022-12-04T02:18:17.199Z,9.00
2022-12-04T02:23:27.847Z,9.05
2022-12-04T02:28:55.240Z,8.55
2022-12-04T02:34:10.046Z,8.93
2022-12-04T02:39:15.126Z,8.68
2022-12-04T02:44:23.970Z,8.77
2022-12-04T02:49:32.296Z,8.45
2022-12-04T02:54:39.412Z,8.70
2022-12-04T02:59:44.108Z,9.15
2022-12-04T03:04:47.086Z,7.85
2022-12-04T03:09:54.816Z,8.80
2022-12-04T03:15:02.450Z,8.60
2022-12-04T03:20:09.764Z,8.32
2022-12-04T03:25:11.891Z,8.52
2022-12-04T03:30:19.531Z,8.75
2022-12-04T03:35:26.621Z,8.98
2022-12-04T03:40:38.973Z,9.27
2022-12-04T03:46:01.877Z,8.90
2022-12-04T03:51:16.839Z,9.63
2022-12-04T03:56:27.564Z,8.93
2022-12-04T04:01:35.344Z,9.13
2022-12-04T04:06:47.308Z,8.70
2022-12-04T04:12:10.120Z,9.80
2022-12-04T04:17:38.246Z,9.05
2022-12-04T04:22:59.507Z,9.73
2022-12-04T04:28:01.131Z,9.18
2022-12-04T04:33:16.152Z,10.00
2022-12-04T04:38:27.626Z,9.40
2022-12-04T04:43:35.059Z,9.23
2022-12-04T04:48:45.565Z,8.90
2022-12-04T04:53:50.997Z,9.07
2022-12-04T04:58:52.625Z,8.43
2022-12-04T05:03:54.263Z,9.07
2022-12-04T05:08:55.858Z,8.20
2022-12-04T05:13:57.597Z,8.90
2022-12-04T05:19:18.776Z,8.73
2022-12-04T05:24:20.454Z,8.88
2022-12-04T05:29:22.136Z,8.63
2022-12-04T05:34:24.071Z,8.57
2022-12-04T05:39:25.814Z,8.90
2022-12-04T05:44:27.424Z,9.82
2022-12-04T05:49:29.984Z,9.20
2022-12-04T05:54:31.704Z,8.98
2022-12-04T05:59:33.355Z,8.68
2022-12-04T06:04:37.270Z,8.80
2022-12-04T06:09:38.947Z,8.75
2022-12-04T06:14:40.572Z,10.05
2022-12-04T06:19:43.175Z,8.32
2022-12-04T06:24:45.121Z,9.63
2022-12-04T06:29:46.760Z,8.98
2022-12-04T06:34:52.998Z,9.25
2022-12-04T06:39:55.014Z,9.30
2022-12-04T06:44:56.928Z,9.70
2022-12-04T06:49:58.922Z,9.82
2022-12-04T06:55:00.778Z,9.30
2022-12-04T07:00:02.451Z,9.35
2022-12-04T07:05:04.246Z,10.02
2022-12-04T07:10:06.586Z,9.40
2022-12-04T07:15:08.942Z,10.10
2022-12-04T07:20:11.092Z,11.30
2022-12-04T07:25:12.715Z,10.98
2022-12-04T07:30:16.002Z,10.32
2022-12-04T07:35:17.899Z,10.52
2022-12-04T07:40:20.549Z,9.38
2022-12-04T07:45:22.252Z,10.90
2022-12-04T07:50:23.910Z,10.77
2022-12-04T07:55:25.651Z,10.70
2022-12-04T08:00:27.385Z,11.25
2022-12-04T08:05:29.073Z,11.32
2022-12-04T08:10:30.705Z,10.88
2022-12-04T08:15:33.934Z,11.18
2022-12-04T08:20:35.610Z,11.52
2022-12-04T08:25:41.392Z,10.90
2022-12-04T08:30:43.030Z,12.38
2022-12-04T08:35:44.733Z,11.45
2022-12-04T08:40:46.321Z,12.00
2022-12-04T08:45:59.083Z,11.45
2022-12-04T08:51:01.237Z,11.88
2022-12-04T08:56:03.384Z,11.88
2022-12-04T09:01:10.319Z,11.82
2022-12-04T09:06:14.014Z,10.93
2022-12-04T09:11:19.111Z,11.10
2022-12-04T09:16:23.440Z,10.00
2022-12-04T09:21:25.748Z,10.93
2022-12-04T09:26:31.021Z,12.13
2022-12-04T09:31:33.225Z,11.90
2022-12-04T09:36:34.875Z,10.88
2022-12-04T09:41:36.539Z,10.80
2022-12-04T09:46:45.492Z,11.68
2022-12-04T09:51:47.670Z,11.23
2022-12-04T09:57:10.642Z,11.25
2022-12-04T10:02:33.120Z,11.07
2022-12-04T10:07:45.345Z,10.77
2022-12-04T10:13:13.767Z,10.43
2022-12-04T10:18:35.572Z,10.55
2022-12-04T10:24:02.081Z,11.57
2022-12-04T10:29:08.441Z,10.70
2022-12-04T10:34:21.287Z,10.63
2022-12-04T10:39:35.301Z,10.00
2022-12-04T10:49:38.902Z,11.40
2022-12-04T10:54:49.287Z,11.93
2022-12-04T10:59:55.439Z,10.98
2022-12-04T11:05:04.915Z,10.95
2022-12-04T11:10:18.584Z,10.30
2022-12-04T11:15:20.409Z,10.68
2022-12-04T11:20:26.425Z,10.48
2022-12-04T11:25:35.276Z,9.73
2022-12-04T11:30:38.101Z,10.43
2022-12-04T11:35:40.194Z,11.10
2022-12-04T11:40:50.600Z,10.55
2022-12-04T11:45:56.958Z,10.88
2022-12-04T11:51:40.330Z,9.27
2022-12-04T11:56:47.071Z,9.82
2022-12-04T12:01:58.225Z,9.13
2022-12-04T12:07:42.245Z,8.07
2022-12-04T12:13:21.445Z,8.45
2022-12-04T12:18:46.720Z,11.55
2022-12-04T12:24:03.408Z,10.10
2022-12-04T12:29:40.871Z,7.82
2022-12-04T12:34:45.289Z,9.93
2022-12-04T12:40:10.184Z,7.90
2022-12-04T12:45:37.204Z,10.02
2022-12-04T12:50:45.911Z,12.48
2022-12-04T12:56:00.895Z,10.85
2022-12-04T13:01:12.882Z,9.93
2022-12-04T13:06:24.944Z,9.32
2022-12-04T13:11:29.249Z,8.93
2022-12-04T13:16:35.506Z,9.88
2022-12-04T13:22:09.699Z,9.77
2022-12-04T13:27:55.962Z,9.90
2022-12-04T13:33:16.159Z,11.02
2022-12-04T13:38:33.254Z,11.18
2022-12-04T13:43:41.050Z,10.85
2022-12-04T13:48:43.284Z,10.68
2022-12-04T13:53:45.901Z,10.68
2022-12-04T13:58:58.089Z,11.45
2022-12-04T14:04:00.080Z,10.65
2022-12-04T14:09:08.719Z,10.27
2022-12-04T14:14:29.847Z,11.55
2022-12-04T14:19:34.678Z,12.10
2022-12-04T14:24:40.026Z,12.48
2022-12-04T14:29:52.043Z,11.45
2022-12-04T14:34:54.842Z,11.68
2022-12-04T14:39:58.612Z,12.03
2022-12-04T14:45:02.338Z,12.05
2022-12-04T14:50:28.757Z,10.82
2022-12-04T14:55:30.405Z,13.07
2022-12-04T15:00:32.890Z,12.25
2022-12-04T15:05:35.122Z,12.65
2022-12-04T15:10:57.457Z,13.65
2022-12-04T15:16:08.751Z,13.85
2022-12-04T15:21:11.342Z,14.98
2022-12-04T15:26:18.907Z,14.32
2022-12-04T15:31:27.958Z,14.48
2022-12-04T15:36:47.522Z,15.82
2022-12-04T15:41:49.875Z,15.38
2022-12-04T15:46:55.116Z,13.80
2022-12-04T15:52:07.785Z,14.75
2022-12-04T15:57:29.258Z,14.38
2022-12-04T16:02:42.964Z,16.20
2022-12-04T16:08:02.647Z,14.45
2022-12-04T16:13:05.727Z,15.55
2022-12-04T16:18:11.393Z,10.75
2022-12-04T16:23:13.218Z,14.55
2022-12-04T16:28:14.808Z,14.38
2022-12-04T16:33:16.639Z,26.77
2022-12-04T16:38:19.218Z,15.13
2022-12-04T16:43:20.868Z,16.67
2022-12-04T16:48:22.542Z,14.90
2022-12-04T16:53:24.223Z,15.57
2022-12-04T16:58:25.940Z,16.10
2022-12-04T17:03:31.659Z,15.77
2022-12-04T17:08:33.595Z,16.13
2022-12-04T17:13:35.285Z,16.23
2022-12-04T17:18:36.947Z,17.92
2022-12-04T17:23:39.191Z,19.73
2022-12-04T17:28:41.462Z,17.00
2022-12-04T17:33:44.237Z,17.83
2022-12-04T17:38:46.253Z,17.98
2022-12-04T17:43:48.007Z,18.38
2022-12-04T17:48:51.100Z,18.08
2022-12-04T17:53:53.179Z,18.10
2022-12-04T17:58:55.093Z,20.13
2022-12-04T18:04:03.231Z,19.15
2022-12-04T18:09:06.890Z,19.92
2022-12-04T18:14:14.910Z,19.92
2022-12-04T18:19:16.587Z,20.50
2022-12-04T18:24:18.727Z,19.25
2022-12-04T18:29:23.148Z,20.92
2022-12-04T18:34:24.941Z,21.77
2022-12-04T18:39:27.197Z,22.20
2022-12-04T18:44:29.311Z,21.90
2022-12-04T18:49:31.062Z,21.83
2022-12-04T18:54:32.790Z,23.35
2022-12-04T18:59:36.396Z,23.08
2022-12-04T19:04:38.131Z,23.00
2022-12-04T19:15:01.596Z,22.50
2022-12-04T19:20:03.371Z,22.88
2022-12-04T19:25:06.554Z,20.95
2022-12-04T19:30:08.737Z,21.30
2022-12-04T19:35:10.629Z,21.15
2022-12-04T19:40:14.002Z,23.08
2022-12-04T19:45:15.765Z,23.65
2022-12-04T19:50:17.644Z,21.63
2022-12-04T19:55:19.303Z,22.15
2022-12-04T20:00:20.975Z,21.85
2022-12-04T20:05:22.632Z,23.80
2022-12-04T20:10:24.786Z,21.98
2022-12-04T20:15:26.445Z,22.58
2022-12-04T20:20:28.195Z,21.13
2022-12-04T20:25:29.852Z,22.17
2022-12-04T20:30:31.581Z,21.95
2022-12-04T20:35:35.872Z,23.23
2022-12-04T20:40:37.637Z,21.10
2022-12-04T20:45:39.313Z,21.85
2022-12-04T20:50:45.882Z,20.73
2022-12-04T20:55:55.197Z,21.52
2022-12-04T21:00:56.910Z,23.02
2022-12-04T21:05:58.608Z,21.55
2022-12-04T21:11:00.235Z,20.88
2022-12-04T21:16:01.974Z,24.75
2022-12-04T21:21:03.768Z,23.15
2022-12-04T21:26:05.563Z,21.95
2022-12-04T21:31:07.327Z,21.83
2022-12-04T21:36:09.767Z,23.33
2022-12-04T21:41:31.718Z,22.85
2022-12-04T21:46:33.654Z,22.55
2022-12-04T21:56:58.005Z,22.65
2022-12-04T22:01:59.725Z,24.92
2022-12-04T22:07:01.746Z,24.33
2022-12-04T22:12:10.375Z,23.45
2022-12-04T22:17:29.358Z,24.23
2022-12-04T22:22:30.951Z,25.08
2022-12-04T22:27:32.623Z,23.88
2022-12-04T22:32:34.558Z,23.38
2022-12-04T22:37:39.769Z,22.25
2022-12-04T22:42:45.743Z,23.85
2022-12-04T22:47:47.380Z,23.25
2022-12-04T22:52:49.039Z,22.85
2022-12-04T22:57:50.688Z,23.73
2022-12-04T23:02:52.526Z,23.70
2022-12-04T23:07:55.041Z,25.38
2022-12-04T23:12:56.852Z,23.48
2022-12-04T23:17:58.493Z,23.70
2022-12-04T23:23:00.262Z,21.95
2022-12-04T23:28:01.891Z,23.95
2022-12-04T23:33:03.589Z,23.05
2022-12-04T23:38:06.274Z,22.80
2022-12-04T23:43:07.952Z,23.27
2022-12-04T23:48:10.333Z,22.20
2022-12-04T23:53:12.982Z,22.30
2022-12-04T23:58:14.710Z,22.60
